Time;durP1;ratioP1;P1;durP2;ratioP2;P2;SDS_P1;SDS_P2;PMS_P1;PMS_P2;Temp;Humidity;BMP_temperature;BMP_pressure;BME280_temperature;BME280_humidity;BME280_pressure;Samples;Min_cycle;Max_cycle;Signal;HPM_P1;HPM_P2
2022/08/29 00:01:43;;;;;;;6.20;3.20;;;;;;;15.55;62.69;100407.25;5072925;28;20090;-79
2022/08/29 00:04:08;;;;;;;7.83;3.77;;;;;;;15.63;62.90;100412.16;5072879;28;20027;-80
2022/08/29 00:06:34;;;;;;;7.32;2.60;;;;;;;15.78;62.53;100412.34;5072700;28;20250;-80
2022/08/29 00:08:59;;;;;;;9.70;3.83;;;;;;;15.64;62.81;100419.28;5074058;28;20043;-82
2022/08/29 00:11:25;;;;;;;6.40;2.22;;;;;;;15.66;63.33;100420.94;5072544;28;20245;-81
2022/08/29 00:13:50;;;;;;;9.38;4.55;;;;;;;15.57;63.81;100420.69;5072368;28;20027;-80
2022/08/29 00:16:15;;;;;;;7.97;3.15;;;;;;;15.55;63.92;100411.91;5076005;28;20114;-80
2022/08/29 00:18:41;;;;;;;5.68;2.67;;;;;;;15.67;63.55;100409.66;5083619;28;20031;-81
2022/08/29 00:21:06;;;;;;;5.90;2.92;;;;;;;15.71;63.49;100402.47;5092096;28;20028;-80
2022/08/29 00:23:32;;;;;;;8.00;1.90;;;;;;;15.57;64.11;100405.03;5092405;28;20032;-81
2022/08/29 00:25:58;;;;;;;10.40;3.13;;;;;;;15.46;64.38;100404.25;5092832;28;20039;-80
2022/08/29 00:28:23;;;;;;;6.53;3.10;;;;;;;15.50;64.15;100399.84;5090466;28;20028;-80
2022/08/29 00:30:49;;;;;;;7.20;2.42;;;;;;;15.43;64.65;100404.84;5071845;28;20044;-80
2022/08/29 00:33:15;;;;;;;5.35;2.08;;;;;;;15.52;64.35;100408.63;5072072;28;20028;-80
2022/08/29 00:35:42;;;;;;;9.13;3.63;;;;;;;15.54;64.01;100404.78;5072180;28;20027;-81
2022/08/29 00:38:10;;;;;;;8.95;2.63;;;;;;;15.57;64.16;100404.22;5072321;28;20085;-81
2022/08/29 00:40:42;;;;;;;8.32;3.50;;;;;;;15.62;63.83;100395.94;5083665;28;20132;-81
2022/08/29 00:43:08;;;;;;;9.15;3.10;;;;;;;15.46;64.26;100393.25;5093293;28;20119;-81
2022/08/29 00:45:37;;;;;;;8.05;3.10;;;;;;;15.57;64.23;100398.72;5071422;28;20123;-81
2022/08/29 00:48:14;;;;;;;9.00;4.43;;;;;;;15.46;64.69;100398.75;5072748;28;20059;-81
2022/08/29 00:50:46;;;;;;;7.80;3.28;;;;;;;15.43;64.72;100409.50;5070525;28;20028;-81
2022/08/29 00:53:16;;;;;;;11.40;3.92;;;;;;;15.32;65.25;100409.53;5071665;28;20051;-79
2022/08/29 00:55:44;;;;;;;7.90;3.72;;;;;;;15.25;65.88;100404.38;5072136;28;20501;-80
2022/08/29 00:58:32;;;;;;;5.43;2.67;;;;;;;15.14;65.78;100408.25;5053956;28;20086;-80
2022/08/29 01:00:58;;;;;;;6.63;3.47;;;;;;;15.10;65.86;100401.66;5072844;28;20098;-81
2022/08/29 01:03:24;;;;;;;6.22;2.63;;;;;;;15.16;66.00;100409.59;5071357;28;20528;-81
2022/08/29 01:05:50;;;;;;;4.32;2.47;;;;;;;15.34;65.23;100409.25;5071889;28;20075;-80
2022/08/29 01:08:15;;;;;;;7.47;3.58;;;;;;;15.24;65.43;100397.22;5071680;28;20063;-81
2022/08/29 01:13:28;;;;;;;6.95;2.55;;;;;;;15.24;65.81;100401.88;5071798;28;20051;-82
2022/08/29 01:15:55;;;;;;;9.93;2.90;;;;;;;15.16;66.11;100403.28;5087186;28;20042;-81
2022/08/29 01:18:21;;;;;;;6.80;3.08;;;;;;;15.07;65.72;100405.81;5090287;28;20056;-80
2022/08/29 01:20:59;;;;;;;11.40;3.70;;;;;;;15.03;66.31;100402.78;5089275;28;20100;-80
2022/08/29 01:23:54;;;;;;;5.20;2.08;;;;;;;14.86;66.82;100407.78;5091233;28;20063;-80
2022/08/29 01:26:21;;;;;;;8.38;2.72;;;;;;;15.02;66.54;100398.41;5073485;28;20427;-80
2022/08/29 01:28:50;;;;;;;6.10;2.03;;;;;;;14.98;66.20;100402.81;5087749;28;20442;-81
2022/08/29 01:31:23;;;;;;;12.77;3.13;;;;;;;14.81;67.27;100406.66;5071007;28;20488;-80
2022/08/29 01:33:58;;;;;;;5.82;2.53;;;;;;;14.88;66.91;100405.56;5070848;28;20528;-80
2022/08/29 01:37:04;;;;;;;6.07;2.40;;;;;;;14.98;67.18;100405.56;5070749;28;20032;-80
2022/08/29 01:39:33;;;;;;;5.82;2.35;;;;;;;14.95;67.20;100400.59;4983711;28;20050;-80
2022/08/29 01:42:00;;;;;;;7.00;2.97;;;;;;;14.75;67.88;100405.00;4969848;28;20713;-80
2022/08/29 01:44:25;;;;;;;7.20;2.47;;;;;;;14.76;67.83;100403.94;5020970;28;20040;-80
2022/08/29 01:46:55;;;;;;;7.53;2.83;;;;;;;14.77;67.81;100410.22;5083753;28;20035;-80
2022/08/29 01:49:22;;;;;;;6.68;3.22;;;;;;;14.62;68.21;100409.16;5069779;28;20048;-80
2022/08/29 01:51:47;;;;;;;7.18;3.95;;;;;;;14.65;68.06;100408.59;5070743;28;20252;-80
2022/08/29 01:54:14;;;;;;;5.63;3.30;;;;;;;14.69;67.81;100409.69;5070211;28;20025;-80
2022/08/29 01:56:43;;;;;;;5.85;2.78;;;;;;;14.53;68.37;100417.13;5070626;28;20020;-80
2022/08/29 01:59:10;;;;;;;5.65;3.42;;;;;;;14.47;68.30;100421.78;5069543;28;20036;-80
2022/08/29 02:01:42;;;;;;;11.52;4.82;;;;;;;14.41;68.36;100419.31;5070814;28;20029;-80
2022/08/29 02:04:08;;;;;;;16.25;6.10;;;;;;;14.51;68.43;100422.06;5052557;28;20029;-80
2022/08/29 02:06:35;;;;;;;11.50;4.85;;;;;;;14.54;68.16;100421.50;5070343;28;20035;-80
2022/08/29 02:09:01;;;;;;;9.50;5.00;;;;;;;14.34;68.49;100425.91;5072086;28;20037;-80
2022/08/29 02:11:27;;;;;;;9.70;4.70;;;;;;;14.13;69.50;100416.84;5070980;28;20115;-80
2022/08/29 02:13:55;;;;;;;11.90;6.60;;;;;;;14.34;68.99;100419.59;5070221;28;20107;-80
2022/08/29 02:16:22;;;;;;;9.75;4.75;;;;;;;14.39;68.51;100416.84;5093383;28;20035;-80
2022/08/29 02:18:48;;;;;;;13.55;5.60;;;;;;;14.37;68.48;100416.31;5079560;28;20081;-80
2022/08/29 02:21:18;;;;;;;16.67;6.18;;;;;;;14.19;69.54;100417.69;5070323;28;20032;-80
2022/08/29 02:23:48;;;;;;;12.65;7.07;;;;;;;14.00;69.84;100419.03;5070299;28;20025;-80
2022/08/29 02:26:14;;;;;;;21.83;6.72;;;;;;;14.04;70.00;100426.69;5052504;28;20179;-80
2022/08/29 02:28:40;;;;;;;15.57;7.45;;;;;;;14.07;69.66;100428.91;5071564;28;20403;-80
2022/08/29 02:31:07;;;;;;;10.40;5.65;;;;;;;14.08;69.60;100428.63;5069585;28;20044;-80
2022/08/29 02:33:33;;;;;;;11.45;5.25;;;;;;;14.19;69.49;100423.16;5069441;28;20024;-80
2022/08/29 02:35:59;;;;;;;11.50;4.40;;;;;;;14.06;69.08;100425.34;5070108;28;20516;-80
2022/08/29 02:38:25;;;;;;;8.25;3.10;;;;;;;14.10;69.08;100429.19;5069437;28;20032;-80
2022/08/29 02:40:51;;;;;;;11.02;3.85;;;;;;;14.19;68.76;100428.63;5085902;28;20047;-81
2022/08/29 02:43:18;;;;;;;8.20;3.80;;;;;;;14.20;68.90;100431.09;5090212;28;20381;-79
2022/08/29 02:45:44;;;;;;;8.88;3.38;;;;;;;14.09;69.40;100438.50;5090323;28;20117;-80
2022/08/29 02:48:10;;;;;;;9.50;3.50;;;;;;;13.88;70.15;100433.00;5075345;28;20478;-80
2022/08/29 02:50:42;;;;;;;10.90;4.25;;;;;;;14.00;70.06;100435.47;5086489;28;20656;-79
2022/08/29 02:53:08;;;;;;;9.43;5.00;;;;;;;13.58;72.05;100434.56;5090271;28;20042;-80
2022/08/29 02:55:34;;;;;;;12.32;3.80;;;;;;;13.88;71.22;100430.25;5089984;28;20028;-80
2022/08/29 02:58:00;;;;;;;7.53;3.92;;;;;;;13.87;71.70;100434.06;5090031;28;20795;-80
2022/08/29 03:00:26;;;;;;;10.38;5.03;;;;;;;14.16;70.54;100434.66;5070804;28;20058;-80
2022/08/29 03:02:53;;;;;;;13.45;4.97;;;;;;;13.75;72.65;100439.00;5069413;28;20032;-81
2022/08/29 03:05:23;;;;;;;10.07;3.22;;;;;;;13.93;72.38;100436.84;5068692;28;20030;-81
2022/08/29 03:07:48;;;;;;;9.02;3.88;;;;;;;14.14;71.49;100445.91;5069939;28;20111;-81
2022/08/29 03:10:14;;;;;;;6.22;3.35;;;;;;;14.20;70.95;100436.59;5068986;28;20831;-80
2022/08/29 03:12:39;;;;;;;7.30;3.07;;;;;;;13.94;71.51;100435.72;5069505;28;20409;-80
2022/08/29 03:15:06;;;;;;;6.25;3.00;;;;;;;13.70;73.25;100441.69;5070928;28;20276;-80
2022/08/29 03:17:31;;;;;;;8.20;3.78;;;;;;;13.53;73.28;100445.44;5085949;28;20032;-80
2022/08/29 03:19:57;;;;;;;12.50;3.78;;;;;;;13.24;74.69;100443.94;5078157;28;20036;-80
2022/08/29 03:22:24;;;;;;;11.30;3.17;;;;;;;13.42;74.24;100439.13;5089469;28;20497;-80
2022/08/29 03:24:49;;;;;;;8.65;4.32;;;;;;;13.62;73.47;100438.41;5089707;28;20034;-80
2022/08/29 03:27:14;;;;;;;6.68;3.10;;;;;;;13.93;72.35;100439.56;5089371;28;20107;-80
2022/08/29 03:29:40;;;;;;;8.80;3.90;;;;;;;13.82;72.51;100439.53;5076066;28;20482;-80
2022/08/29 03:32:05;;;;;;;5.93;2.33;;;;;;;14.03;71.52;100441.50;5069262;28;20291;-81
2022/08/29 03:34:31;;;;;;;9.48;3.83;;;;;;;14.19;70.28;100429.47;5068611;28;20376;-81
2022/08/29 03:36:57;;;;;;;7.45;3.20;;;;;;;13.96;71.06;100426.16;5069713;28;20029;-80
2022/08/29 03:39:23;;;;;;;12.02;4.05;;;;;;;13.80;71.53;100428.03;5070563;28;20059;-80
2022/08/29 03:41:48;;;;;;;8.65;3.67;;;;;;;13.79;71.47;100426.38;5089393;28;20532;-80
2022/08/29 03:44:14;;;;;;;10.40;5.03;;;;;;;13.80;71.12;100427.19;5089473;28;20027;-80
2022/08/29 03:46:39;;;;;;;6.72;3.58;;;;;;;13.36;72.11;100430.06;5076229;28;20079;-80
2022/08/29 03:49:06;;;;;;;9.32;3.45;;;;;;;13.54;71.88;100426.06;5070160;28;20044;-79
2022/08/29 03:51:37;;;;;;;6.05;3.35;;;;;;;13.14;73.81;100432.97;5069284;28;20059;-81
2022/08/29 03:54:03;;;;;;;12.23;5.85;;;;;;;13.22;74.18;100434.38;5068215;28;20025;-81
2022/08/29 03:56:29;;;;;;;10.73;4.43;;;;;;;13.51;72.93;100429.28;5069304;28;20035;-80
2022/08/29 03:58:55;;;;;;;10.25;4.82;;;;;;;13.70;72.12;100422.53;5069862;28;20586;-79
2022/08/29 04:01:27;;;;;;;10.27;4.07;;;;;;;13.65;72.32;100420.59;5069000;28;20036;-79
2022/08/29 04:03:53;;;;;;;11.25;3.67;;;;;;;13.75;71.64;100417.06;5068277;28;20403;-79
2022/08/29 04:06:19;;;;;;;8.27;3.80;;;;;;;13.82;71.49;100425.00;5068862;28;20093;-80
2022/08/29 04:08:46;;;;;;;10.30;4.38;;;;;;;13.91;71.27;100411.63;5070259;28;20028;-80
2022/08/29 04:11:13;;;;;;;7.80;3.15;;;;;;;13.74;71.54;100418.16;5068885;28;20119;-80
2022/08/29 04:13:39;;;;;;;7.78;3.40;;;;;;;13.78;71.65;100422.00;5068859;28;20028;-80
2022/08/29 04:16:13;;;;;;;9.95;4.10;;;;;;;13.73;71.52;100422.00;5079791;28;20035;-79
2022/08/29 04:18:38;;;;;;;;;;;;;;;13.81;71.80;100420.66;5081926;28;20032;-80
2022/08/29 04:21:05;;;;;;;13.95;3.97;;;;;;;13.81;71.59;100424.19;5092194;28;20376;-80
2022/08/29 04:23:31;;;;;;;8.50;3.47;;;;;;;13.85;71.50;100425.28;5093097;28;20036;-80
2022/08/29 04:25:56;;;;;;;19.88;4.25;;;;;;;13.71;71.78;100424.19;5092953;28;20024;-81
2022/08/29 04:28:22;;;;;;;9.98;3.38;;;;;;;13.52;72.70;100427.38;5092117;28;20051;-80
2022/08/29 04:30:49;;;;;;;7.43;3.22;;;;;;;13.43;73.14;100433.38;5072579;28;20051;-81
2022/08/29 04:33:14;;;;;;;9.48;4.75;;;;;;;13.53;73.43;100426.25;5071741;28;20052;-80
2022/08/29 04:35:39;;;;;;;10.02;3.47;;;;;;;13.56;72.76;100419.47;5071982;28;20072;-80
2022/08/29 04:38:05;;;;;;;7.45;3.10;;;;;;;13.58;72.85;100420.84;5072328;28;20043;-80
2022/08/29 04:40:30;;;;;;;6.25;4.07;;;;;;;13.58;72.58;100423.59;5081953;28;20051;-80
2022/08/29 04:42:58;;;;;;;12.55;3.95;;;;;;;13.58;72.33;100420.84;5092385;28;20393;-80
2022/08/29 04:45:24;;;;;;;8.95;4.38;;;;;;;13.47;72.92;100424.59;5095809;28;20031;-80
2022/08/29 04:47:50;;;;;;;11.60;3.60;;;;;;;13.72;72.21;100420.34;5107552;28;20077;-80
2022/08/29 04:50:18;;;;;;;9.18;4.45;;;;;;;13.71;72.55;100422.25;5078376;28;20036;-82
2022/08/29 04:52:44;;;;;;;11.52;4.30;;;;;;;13.74;72.05;100423.63;5071585;28;20409;-80
2022/08/29 04:55:10;;;;;;;12.07;4.63;;;;;;;13.75;72.59;100423.34;5071739;28;20028;-79
2022/08/29 04:57:37;;;;;;;8.68;3.38;;;;;;;13.79;72.78;100431.06;5071974;28;20032;-80
2022/08/29 05:00:05;;;;;;;14.88;4.68;;;;;;;13.23;74.28;100441.47;5073177;28;20393;-80
2022/08/29 05:02:30;;;;;;;8.90;3.42;;;;;;;13.01;75.44;100445.19;5071538;28;20632;-80
2022/08/29 05:04:56;;;;;;;11.48;3.65;;;;;;;13.07;75.71;100447.72;5071287;28;20166;-80
2022/08/29 05:07:24;;;;;;;11.40;4.35;;;;;;;13.59;74.32;100444.41;5071708;28;20033;-80
2022/08/29 05:10:07;;;;;;;7.32;3.72;;;;;;;13.85;73.31;100439.00;5071598;28;20067;-80
2022/08/29 05:12:33;;;;;;;7.18;3.85;;;;;;;14.01;72.60;100439.03;5071542;28;20145;-80
2022/08/29 05:14:58;;;;;;;7.70;4.03;;;;;;;14.08;72.22;100439.59;5071419;28;20052;-79
2022/08/29 05:17:24;;;;;;;9.60;4.32;;;;;;;14.02;72.52;100440.69;5088213;28;20492;-80
2022/08/29 05:19:50;;;;;;;9.30;4.53;;;;;;;14.10;72.26;100434.66;5079560;28;20119;-80
2022/08/29 05:22:17;;;;;;;13.90;3.72;;;;;;;14.12;72.04;100435.22;5092015;28;20512;-80
2022/08/29 05:24:42;;;;;;;11.73;4.35;;;;;;;14.33;71.33;100434.41;5091997;28;20492;-80
2022/08/29 05:27:15;;;;;;;7.20;3.78;;;;;;;14.34;71.31;100436.88;5090972;28;20047;-80
2022/08/29 05:29:43;;;;;;;7.35;2.75;;;;;;;14.31;71.42;100434.69;5064222;28;20401;-81
2022/08/29 05:32:10;;;;;;;8.20;3.28;;;;;;;14.46;71.00;100433.84;5072213;28;20499;-80
2022/08/29 05:34:37;;;;;;;9.23;3.25;;;;;;;14.56;70.89;100444.00;5071213;28;20039;-80
2022/08/29 05:37:05;;;;;;;9.38;2.95;;;;;;;14.45;70.94;100442.34;5071673;28;20029;-81
2022/08/29 05:39:30;;;;;;;10.77;4.63;;;;;;;14.48;71.31;100455.53;5060283;28;20389;-80
2022/08/29 05:41:56;;;;;;;9.35;3.35;;;;;;;14.25;72.29;100454.97;5092036;28;20028;-80
2022/08/29 05:44:22;;;;;;;9.57;2.92;;;;;;;14.27;72.14;100452.78;5092036;28;20044;-80
2022/08/29 05:46:48;;;;;;;7.68;3.78;;;;;;;14.10;72.14;100453.84;5088943;28;20042;-80
2022/08/29 05:49:13;;;;;;;8.18;3.28;;;;;;;13.80;74.05;100455.44;5071739;28;20028;-80
2022/08/29 05:51:39;;;;;;;14.55;4.63;;;;;;;13.73;74.11;100455.69;5071317;28;20035;-80
2022/08/29 05:54:05;;;;;;;8.82;4.00;;;;;;;13.70;74.52;100458.13;5070652;28;20045;-80
2022/08/29 05:56:30;;;;;;;9.25;4.57;;;;;;;13.86;74.50;100465.31;5071305;28;20024;-80
2022/08/29 05:58:55;;;;;;;8.40;4.03;;;;;;;14.33;72.94;100461.84;5071951;28;20021;-80
2022/08/29 06:01:23;;;;;;;16.05;4.45;;;;;;;14.63;71.43;100456.63;5083272;28;20028;-82
2022/08/29 06:03:49;;;;;;;8.23;4.30;;;;;;;14.77;70.73;100454.13;5080690;28;20038;-80
2022/08/29 06:06:14;;;;;;;9.60;4.68;;;;;;;14.84;70.10;100460.22;5070089;28;20450;-78
2022/08/29 06:08:39;;;;;;;12.53;4.50;;;;;;;14.77;70.48;100454.97;5072010;28;20036;-80
2022/08/29 06:11:05;;;;;;;10.40;3.40;;;;;;;14.86;70.54;100452.53;5070608;28;20266;-79
2022/08/29 06:13:30;;;;;;;8.53;3.57;;;;;;;14.97;70.38;100456.06;5070424;28;20102;-79
2022/08/29 06:15:56;;;;;;;9.93;4.35;;;;;;;15.02;70.05;100461.56;5078739;28;20775;-80
2022/08/29 06:18:21;;;;;;;8.20;2.97;;;;;;;15.03;69.78;100465.94;5079674;28;20035;-80
2022/08/29 06:20:46;;;;;;;7.00;3.38;;;;;;;15.02;70.18;100467.03;5070426;28;20032;-80
2022/08/29 06:23:13;;;;;;;11.40;4.60;;;;;;;15.09;69.98;100472.25;5077091;28;20035;-80
2022/08/29 06:25:38;;;;;;;10.70;4.05;;;;;;;14.80;71.16;100468.16;5079162;28;20726;-80
2022/08/29 06:28:03;;;;;;;10.52;4.03;;;;;;;15.08;70.17;100464.28;5080994;28;20055;-80
2022/08/29 06:30:32;;;;;;;9.50;3.85;;;;;;;15.24;69.89;100468.63;5078338;28;20052;-81
2022/08/29 06:32:58;;;;;;;27.08;5.18;;;;;;;15.24;69.53;100463.13;5077446;28;20043;-80
2022/08/29 06:35:24;;;;;;;9.65;3.67;;;;;;;15.35;69.21;100460.34;5077557;28;20050;-80
2022/08/29 06:37:49;;;;;;;25.08;4.85;;;;;;;15.35;68.96;100465.84;5083486;28;20032;-80
2022/08/29 06:40:15;;;;;;;9.77;3.38;;;;;;;15.34;68.76;100461.44;5074348;28;20032;-80
2022/08/29 06:42:41;;;;;;;8.55;4.80;;;;;;;15.44;68.33;100466.09;5079574;28;20032;-80
2022/08/29 06:45:07;;;;;;;9.02;3.95;;;;;;;15.27;69.44;100467.25;5080937;28;20024;-80
2022/08/29 06:47:32;;;;;;;11.73;5.13;;;;;;;15.28;69.01;100469.72;5080218;28;20027;-80
2022/08/29 06:49:58;;;;;;;8.40;4.40;;;;;;;15.31;69.02;100464.75;5081155;28;20067;-80
2022/08/29 06:52:23;;;;;;;9.02;3.60;;;;;;;15.56;69.79;100469.34;5080201;28;20117;-81
2022/08/29 06:54:48;;;;;;;9.63;4.03;;;;;;;15.36;69.35;100478.47;5090258;28;20093;-80
2022/08/29 06:57:13;;;;;;;8.55;4.15;;;;;;;15.13;70.09;100483.50;5090887;28;20119;-80
2022/08/29 06:59:39;;;;;;;10.52;4.72;;;;;;;15.32;69.86;100482.88;5079646;28;20112;-80
2022/08/29 07:02:04;;;;;;;8.82;4.82;;;;;;;15.53;68.85;100480.91;5070811;28;20064;-81
2022/08/29 07:04:29;;;;;;;7.87;4.33;;;;;;;15.59;68.62;100484.44;5069270;28;20039;-79
2022/08/29 07:06:55;;;;;;;9.45;4.18;;;;;;;15.64;68.96;100484.44;5069768;28;20276;-81
2022/08/29 07:09:20;;;;;;;10.50;4.57;;;;;;;15.56;68.98;100496.00;5069041;28;20039;-80
2022/08/29 07:11:46;;;;;;;8.15;4.30;;;;;;;15.32;69.14;100502.94;5069535;28;20110;-81
2022/08/29 07:14:11;;;;;;;8.30;5.00;;;;;;;15.56;69.32;100504.25;5069535;28;20024;-80
2022/08/29 07:16:38;;;;;;;7.55;3.55;;;;;;;15.64;69.02;100498.97;5083273;28;20031;-80
2022/08/29 07:19:05;;;;;;;10.23;4.40;;;;;;;15.92;68.04;100497.75;5083412;28;20055;-80
2022/08/29 07:21:31;;;;;;;13.80;5.03;;;;;;;16.06;68.19;100495.25;5090028;28;20392;-80
2022/08/29 07:23:57;;;;;;;9.05;4.25;;;;;;;16.13;67.68;100506.75;5089866;28;20024;-81
2022/08/29 07:26:35;;;;;;;8.27;3.88;;;;;;;16.21;67.05;100492.38;5082317;28;20108;-84
2022/08/29 07:29:04;;;;;;;9.73;4.75;;;;;;;16.01;67.39;100493.31;5071382;28;20138;-83
2022/08/29 07:31:33;;;;;;;10.05;3.78;;;;;;;16.01;67.22;100504.31;5050841;28;20056;-83
2022/08/29 07:33:58;;;;;;;11.65;4.95;;;;;;;16.04;67.42;100511.19;5051763;28;20033;-82
2022/08/29 07:36:24;;;;;;;16.17;6.13;;;;;;;16.08;67.58;100502.13;5051915;28;20508;-82
2022/08/29 07:38:49;;;;;;;11.45;4.70;;;;;;;16.36;66.47;100496.16;5055721;28;20032;-81
2022/08/29 07:41:14;;;;;;;10.68;4.55;;;;;;;16.30;66.08;100484.34;5066839;28;20036;-79
2022/08/29 07:43:41;;;;;;;13.00;4.80;;;;;;;16.44;66.20;100491.97;5072301;28;20074;-82
2022/08/29 07:46:09;;;;;;;20.60;4.80;;;;;;;16.40;66.39;100494.47;5071508;28;20497;-81
2022/08/29 07:48:35;;;;;;;8.57;4.53;;;;;;;16.27;66.23;100503.38;5058184;28;20430;-81
2022/08/29 07:51:04;;;;;;;18.20;5.43;;;;;;;16.37;66.88;100496.97;5052561;28;20055;-80
2022/08/29 07:53:30;;;;;;;10.48;3.80;;;;;;;16.66;67.64;100499.75;5055239;28;20033;-83
2022/08/29 07:55:55;;;;;;;10.07;4.20;;;;;;;16.52;66.40;100505.09;5056046;28;20032;-83
2022/08/29 07:58:20;;;;;;;9.25;3.72;;;;;;;16.59;66.29;100503.97;5054662;28;20041;-83
2022/08/29 08:00:45;;;;;;;7.95;3.45;;;;;;;16.68;65.94;100503.06;5075629;28;20082;-82
2022/08/29 08:03:13;;;;;;;15.30;4.30;;;;;;;17.09;64.46;100503.78;5073961;28;20520;-82
2022/08/29 08:05:38;;;;;;;6.95;2.63;;;;;;;16.89;64.05;100497.38;5073261;28;20048;-82
2022/08/29 08:08:03;;;;;;;9.23;3.33;;;;;;;17.04;63.96;100498.34;5072843;28;20097;-80
2022/08/29 08:10:28;;;;;;;9.40;2.85;;;;;;;17.14;63.62;100498.28;5073564;28;20040;-81
2022/08/29 08:12:54;;;;;;;8.77;2.67;;;;;;;17.13;63.12;100496.59;5074634;28;20035;-77
2022/08/29 08:15:20;;;;;;;9.93;3.33;;;;;;;17.11;63.85;100506.25;5073383;28;20420;-81
2022/08/29 08:17:46;;;;;;;8.25;3.33;;;;;;;17.04;63.58;100501.09;5067252;28;20033;-81
2022/08/29 08:20:12;;;;;;;12.45;2.72;;;;;;;17.06;62.93;100506.31;5053123;28;20087;-81
2022/08/29 08:22:38;;;;;;;9.15;2.67;;;;;;;16.98;62.94;100516.03;5053823;28;20035;-82
2022/08/29 08:25:04;;;;;;;10.85;2.55;;;;;;;16.80;63.13;100515.63;5053948;28;20112;-82
2022/08/29 08:27:30;;;;;;;5.88;2.78;;;;;;;16.98;62.47;100516.03;5054399;28;20462;-82
2022/08/29 08:29:56;;;;;;;13.40;3.17;;;;;;;16.89;62.23;100511.13;5071956;28;20524;-81
2022/08/29 08:32:21;;;;;;;8.77;3.05;;;;;;;17.34;62.74;100509.34;5094341;28;20060;-81
2022/08/29 08:34:46;;;;;;;10.50;2.60;;;;;;;17.34;61.57;100507.41;5093803;28;20055;-82
2022/08/29 08:37:11;;;;;;;5.73;1.87;;;;;;;17.54;61.35;100505.53;5094258;28;20123;-82
2022/08/29 08:39:38;;;;;;;18.40;2.47;;;;;;;17.77;60.16;100502.22;5090516;28;20265;-83
2022/08/29 08:42:31;;;;;;;8.35;2.65;;;;;;;17.40;59.42;100502.66;5074122;28;20052;-81
2022/08/29 08:45:04;;;;;;;9.27;2.42;;;;;;;17.77;59.42;100507.75;5074138;28;20032;-81
2022/08/29 08:47:50;;;;;;;6.45;2.47;;;;;;;18.01;58.71;100507.69;5078417;28;20074;-81
2022/08/29 08:50:19;;;;;;;11.02;2.42;;;;;;;18.28;59.77;100508.19;5076346;28;20068;-80
2022/08/29 08:52:52;;;;;;;8.23;3.65;;;;;;;18.30;58.09;100508.69;5073878;28;20087;-81
2022/08/29 08:55:40;;;;;;;7.00;2.17;;;;;;;18.26;58.08;100507.66;5073565;28;20029;-82
2022/08/29 08:58:10;;;;;;;8.10;1.77;;;;;;;18.06;57.75;100510.38;5073715;28;20037;-81
2022/08/29 09:00:42;;;;;;;6.97;2.63;;;;;;;18.18;57.44;100517.44;5073926;28;20034;-81
2022/08/29 09:03:15;;;;;;;9.07;2.67;;;;;;;18.25;57.24;100512.34;5092273;28;20139;-82
2022/08/29 09:05:48;;;;;;;8.90;3.08;;;;;;;18.43;57.01;100510.69;5075716;28;20027;-81
2022/08/29 09:08:34;;;;;;;5.43;1.92;;;;;;;18.42;56.74;100511.84;5093318;28;20032;-82
2022/08/29 09:11:12;;;;;;;7.93;2.15;;;;;;;18.36;57.18;100510.28;5093418;28;20043;-80
2022/08/29 09:13:50;;;;;;;6.13;2.30;;;;;;;18.49;56.93;100516.94;5093278;28;20074;-81
2022/08/29 09:16:25;;;;;;;5.13;2.28;;;;;;;18.69;56.40;100520.53;5093197;28;20028;-81
2022/08/29 09:18:51;;;;;;;13.30;3.20;;;;;;;18.63;55.66;100519.75;5064940;28;20124;-82
2022/08/29 09:21:22;;;;;;;9.50;2.17;;;;;;;18.55;55.41;100512.16;5093676;28;20534;-81
2022/08/29 09:24:00;;;;;;;7.30;2.63;;;;;;;18.76;55.88;100504.38;5093558;28;20028;-81
2022/08/29 09:26:26;;;;;;;7.03;2.85;;;;;;;18.81;56.04;100510.94;5093187;28;20108;-81
2022/08/29 09:28:52;;;;;;;9.95;2.40;;;;;;;18.90;54.79;100514.63;5069528;28;20423;-81
2022/08/29 09:31:28;;;;;;;7.72;2.58;;;;;;;19.01;54.69;100509.75;5072209;28;20546;-81
2022/08/29 09:33:57;;;;;;;11.93;2.15;;;;;;;18.98;55.14;100513.09;5072541;28;20028;-81
2022/08/29 09:36:37;;;;;;;8.73;2.10;;;;;;;18.78;55.22;100507.66;5072281;28;20032;-82
2022/08/29 09:39:15;;;;;;;9.15;2.20;;;;;;;18.84;55.11;100515.84;5071451;28;20040;-82
2022/08/29 09:41:40;;;;;;;7.75;2.65;;;;;;;18.78;54.40;100507.66;5072118;28;20087;-82
2022/08/29 09:44:11;;;;;;;8.70;1.52;;;;;;;18.84;53.81;100505.63;5072645;28;20458;-82
2022/08/29 09:46:36;;;;;;;6.40;1.75;;;;;;;19.10;55.50;100504.34;5073735;28;20037;-82
2022/08/29 09:49:02;;;;;;;9.25;2.17;;;;;;;19.19;55.01;100508.06;5085263;28;20037;-81
2022/08/29 09:51:34;;;;;;;10.57;2.47;;;;;;;19.28;53.05;100508.19;5072750;28;20426;-81
2022/08/29 09:54:13;;;;;;;6.57;2.67;;;;;;;19.44;53.41;100503.19;5071956;28;20473;-81
2022/08/29 09:56:47;;;;;;;8.80;2.45;;;;;;;19.27;52.55;100502.94;5071190;28;20480;-82
2022/08/29 09:59:32;;;;;;;9.70;3.10;;;;;;;19.00;53.35;100506.16;5080567;28;20469;-81
2022/08/29 10:02:23;;;;;;;8.73;2.30;;;;;;;19.46;53.33;100502.88;5093502;28;20036;-81
2022/08/29 10:05:00;;;;;;;8.50;2.10;;;;;;;19.73;52.65;100489.31;5075228;28;20040;-82
2022/08/29 10:07:29;;;;;;;7.88;3.17;;;;;;;19.50;51.99;100492.00;5091140;28;20031;-82
2022/08/29 10:10:13;;;;;;;10.35;3.50;;;;;;;19.21;52.56;100492.00;5058558;28;20465;-80
2022/08/29 10:12:50;;;;;;;9.05;2.65;;;;;;;19.42;52.28;100493.53;5072539;28;20086;-82
2022/08/29 10:15:52;;;;;;;8.88;3.05;;;;;;;19.20;51.32;100495.88;5071594;28;20050;-82
2022/08/29 10:18:43;;;;;;;10.70;3.17;;;;;;;19.45;51.69;100493.75;5068289;28;20044;-81
2022/08/29 10:21:23;;;;;;;5.53;2.45;;;;;;;19.50;51.09;100498.34;5092105;28;20102;-82
2022/08/29 10:23:53;;;;;;;8.13;2.90;;;;;;;19.63;50.66;100498.66;5092488;28;20450;-81
2022/08/29 10:26:33;;;;;;;6.18;2.65;;;;;;;19.40;51.12;100491.09;5092390;28;20028;-81
2022/08/29 10:29:26;;;;;;;9.65;3.10;;;;;;;19.50;50.28;100484.53;5089485;28;20115;-80
2022/08/29 10:32:07;;;;;;;8.15;2.33;;;;;;;19.94;49.67;100489.69;5090746;28;20600;-83
2022/08/29 10:34:59;;;;;;;7.85;2.80;;;;;;;20.04;48.93;100485.84;5091068;28;20035;-82
2022/08/29 10:37:34;;;;;;;4.20;2.22;;;;;;;19.92;49.62;100491.94;5091522;28;20036;-82
2022/08/29 10:40:41;;;;;;;8.40;3.03;;;;;;;20.03;48.93;100489.78;5090360;28;20028;-82
2022/08/29 10:43:40;;;;;;;5.05;2.20;;;;;;;20.21;48.90;100488.00;5040840;28;20075;-83
2022/08/29 10:46:24;;;;;;;12.32;3.63;;;;;;;20.33;50.39;100479.13;5090766;28;20109;-83
2022/08/29 10:49:20;;;;;;;5.43;2.20;;;;;;;20.60;47.27;100477.38;5075901;28;20039;-86
2022/08/29 10:52:27;;;;;;;7.20;2.63;;;;;;;20.38;48.83;100470.69;5091858;28;20123;-86
2022/08/29 10:55:13;;;;;;;6.63;1.65;;;;;;;20.24;48.43;100478.25;5052075;28;20044;-82
2022/08/29 10:57:52;;;;;;;9.35;1.92;;;;;;;20.43;48.73;100472.53;5090869;28;20039;-81
2022/08/29 11:00:21;;;;;;;12.75;2.92;;;;;;;20.50;49.25;100480.41;5073565;28;20397;-84
2022/08/29 11:03:23;;;;;;;5.32;1.50;;;;;;;20.45;47.67;100472.22;5070915;28;20025;-84
2022/08/29 11:06:08;;;;;;;5.43;1.60;;;;;;;20.41;47.29;100467.31;5073219;28;20024;-87
2022/08/29 11:08:44;;;;;;;9.07;2.40;;;;;;;20.27;47.75;100463.78;5075087;28;20030;-86
2022/08/29 11:11:13;;;;;;;8.75;2.65;;;;;;;20.52;47.62;100454.00;5092880;28;20039;-86
2022/08/29 11:13:48;;;;;;;5.88;2.42;;;;;;;20.39;46.73;100466.81;5092156;28;20032;-84
2022/08/29 11:16:45;;;;;;;9.52;2.97;;;;;;;20.30;47.31;100455.66;5091195;28;20035;-83
2022/08/29 11:19:19;;;;;;;5.47;1.98;;;;;;;20.53;47.55;100443.75;5052537;28;20048;-84
2022/08/29 11:21:57;;;;;;;8.75;2.28;;;;;;;20.68;46.80;100452.81;5071620;28;20029;-84
2022/08/29 11:24:27;;;;;;;7.45;3.25;;;;;;;20.71;46.11;100455.75;5071874;28;20051;-85
2022/08/29 11:27:06;;;;;;;5.05;2.10;;;;;;;21.01;45.75;100446.16;5056642;28;20036;-85
2022/08/29 11:29:36;;;;;;;7.75;2.72;;;;;;;20.91;46.75;100441.69;5075143;28;20032;-84
2022/08/29 11:32:10;;;;;;;11.98;2.75;;;;;;;20.66;46.08;100436.53;5076249;28;20024;-83
2022/08/29 11:34:55;;;;;;;7.57;2.75;;;;;;;20.61;47.19;100429.16;5075409;28;20027;-84
2022/08/29 11:37:33;;;;;;;6.05;1.98;;;;;;;20.91;46.94;100430.63;5075551;28;20052;-85